Armazem, Brazil
Current Conditions -  °F | °C
As of 4:35 PM on Friday 24 Oct 2014 (Local Time) from SBCM Reporting Station
Few Clouds Few Clouds  
Wind Chill: 84°   Ceiling: Unl
Heat Index: 86°   Visibility: 6mi
Dew Point: 66°   Wind: 8mph
Humidity: 55%   Direction: 130°SE
Pressure: 29.88"   Gusts: NA
Location:  28.26°S, 49.02°W
Report Text: SBCM 241835Z 13007KT 9999 FEW030 29/19 Q1012
Loading
Personal Weather Stations






























Interactive Weather Map
Tropical Storm Tracking
New forecast layout! Learn more

10-Day Weather Forecast

Advertisements
Track Severe Weather on mobile